Time;durP1;ratioP1;P1;durP2;ratioP2;P2;SDS_P1;SDS_P2;PMS_P1;PMS_P2;Temp;Humidity;BMP_temperature;BMP_pressure;BME280_temperature;BME280_humidity;BME280_pressure;Samples;Min_cycle;Max_cycle;Signal;HPM_P1;HPM_P2
2023/12/10 00:00:16;;;;;;;15.43;3.33;;;;;;;;;;689730;28;790;-73
2023/12/10 00:00:37;;;;;;;16.27;3.37;;;;;;;;;;689241;28;1568;-74
2023/12/10 00:00:57;;;;;;;18.27;4.13;;;;;;;;;;690469;28;952;-73
2023/12/10 00:01:18;;;;;;;18.52;3.72;;;;;;;;;;689298;28;4290;-73
2023/12/10 00:01:38;;;;;;;16.87;3.80;;;;;;;;;;688930;28;1823;-73
2023/12/10 00:01:58;;;;;;;19.23;4.13;;;;;;;;;;690458;28;861;-73
2023/12/10 00:02:19;;;;;;;17.67;3.28;;;;;;;;;;688341;28;1179;-72
2023/12/10 00:02:39;;;;;;;19.53;3.97;;;;;;;;;;689668;28;2292;-74
2023/12/10 00:02:59;;;;;;;19.20;3.77;;;;;;;;;;687509;28;1236;-74
2023/12/10 00:03:19;;;;;;;17.47;3.90;;;;;;;;;;687280;28;840;-74
2023/12/10 00:03:40;;;;;;;22.17;3.70;;;;;;;;;;686780;28;1496;-73
2023/12/10 00:04:00;;;;;;;21.87;3.97;;;;;;;;;;687317;28;4336;-72
2023/12/10 00:04:20;;;;;;;19.90;4.00;;;;;;;;;;689820;28;908;-74
2023/12/10 00:04:43;;;;;;;19.23;3.75;;;;;;;;;;689209;28;1818;-74
2023/12/10 00:05:04;;;;;;;22.40;3.90;;;;;;;;;;690303;28;920;-75
2023/12/10 00:05:25;;;;;;;21.17;3.80;;;;;;;;;;690191;28;868;-74
2023/12/10 00:05:45;;;;;;;23.53;4.00;;;;;;;;;;688947;28;2823;-76
2023/12/10 00:06:06;;;;;;;22.57;4.10;;;;;;;;;;690642;28;1031;-76
2023/12/10 00:06:26;;;;;;;21.65;3.92;;;;;;;;;;690455;28;873;-75
2023/12/10 00:06:48;;;;;;;19.33;4.15;;;;;;;;;;689521;28;927;-75
2023/12/10 00:07:09;;;;;;;18.40;3.60;;;;;;;;;;689614;28;4474;-76
2023/12/10 00:07:29;;;;;;;20.95;3.72;;;;;;;;;;690549;28;869;-77
2023/12/10 00:07:50;;;;;;;20.25;4.07;;;;;;;;;;689044;28;1762;-75
2023/12/10 00:08:11;;;;;;;22.60;4.55;;;;;;;;;;690234;28;960;-75
2023/12/10 00:08:32;;;;;;;22.23;4.95;;;;;;;;;;689869;28;963;-75
2023/12/10 00:08:53;;;;;;;18.75;4.00;;;;;;;;;;689250;28;2187;-75
2023/12/10 00:09:14;;;;;;;18.50;3.57;;;;;;;;;;690450;28;833;-77
2023/12/10 00:09:35;;;;;;;16.33;3.50;;;;;;;;;;690063;28;856;-76
2023/12/10 00:09:56;;;;;;;19.48;3.65;;;;;;;;;;688937;28;2234;-76
2023/12/10 00:10:16;;;;;;;20.92;3.80;;;;;;;;;;689336;28;4283;-77
2023/12/10 00:10:37;;;;;;;19.00;3.30;;;;;;;;;;688997;28;1987;-76
2023/12/10 00:10:57;;;;;;;19.87;3.67;;;;;;;;;;687731;28;1224;-76
2023/12/10 00:11:17;;;;;;;19.47;3.70;;;;;;;;;;687438;28;731;-73
2023/12/10 00:11:37;;;;;;;19.37;3.63;;;;;;;;;;686401;28;2413;-77
2023/12/10 00:11:58;;;;;;;19.93;3.93;;;;;;;;;;690046;28;1910;-72
2023/12/10 00:12:18;;;;;;;17.65;4.18;;;;;;;;;;687582;28;1409;-73
2023/12/10 00:12:40;;;;;;;17.23;3.60;;;;;;;;;;686426;28;2464;-74
2023/12/10 00:13:00;;;;;;;19.52;3.97;;;;;;;;;;687505;28;5191;-72
2023/12/10 00:13:20;;;;;;;24.33;4.60;;;;;;;;;;687654;28;844;-72
2023/12/10 00:13:41;;;;;;;22.03;4.13;;;;;;;;;;686485;28;2235;-74
2023/12/10 00:14:01;;;;;;;19.10;4.25;;;;;;;;;;686987;28;840;-73
2023/12/10 00:14:21;;;;;;;18.60;3.80;;;;;;;;;;689886;28;924;-73
2023/12/10 00:14:42;;;;;;;20.10;4.30;;;;;;;;;;689333;28;1841;-73
2023/12/10 00:15:03;;;;;;;15.48;3.88;;;;;;;;;;693061;28;1355;-72
2023/12/10 00:15:23;;;;;;;15.55;3.40;;;;;;;;;;692269;28;920;-72
2023/12/10 00:15:44;;;;;;;23.83;4.32;;;;;;;;;;689166;28;2328;-74
2023/12/10 00:16:04;;;;;;;22.63;4.67;;;;;;;;;;689864;28;4271;-74
2023/12/10 00:16:24;;;;;;;25.43;5.70;;;;;;;;;;690612;28;1280;-75
2023/12/10 00:16:44;;;;;;;22.42;4.53;;;;;;;;;;689203;28;2373;-72
2023/12/10 00:17:05;;;;;;;19.50;3.70;;;;;;;;;;690129;28;844;-73
2023/12/10 00:17:25;;;;;;;19.17;3.33;;;;;;;;;;690687;28;1722;-76
2023/12/10 00:17:45;;;;;;;21.25;3.88;;;;;;;;;;689362;28;2363;-75
2023/12/10 00:18:06;;;;;;;21.87;3.60;;;;;;;;;;689309;28;905;-77
2023/12/10 00:18:26;;;;;;;23.60;3.70;;;;;;;;;;690387;28;845;-72
2023/12/10 00:18:46;;;;;;;18.65;3.45;;;;;;;;;;689146;28;1798;-73
2023/12/10 00:19:06;;;;;;;19.73;3.70;;;;;;;;;;689933;28;4253;-74
2023/12/10 00:19:27;;;;;;;19.97;3.90;;;;;;;;;;689946;28;1590;-73
2023/12/10 00:19:47;;;;;;;18.00;3.95;;;;;;;;;;689117;28;1855;-73
2023/12/10 00:20:08;;;;;;;20.87;4.00;;;;;;;;;;689657;28;924;-73
2023/12/10 00:20:29;;;;;;;16.45;3.45;;;;;;;;;;690495;28;805;-74
2023/12/10 00:20:49;;;;;;;18.17;3.75;;;;;;;;;;688772;28;860;-74
2023/12/10 00:21:12;;;;;;;21.03;3.90;;;;;;;;;;689026;28;1112;-72
2023/12/10 00:21:32;;;;;;;17.23;4.03;;;;;;;;;;688678;28;1025;-73
2023/12/10 00:21:52;;;;;;;19.43;4.50;;;;;;;;;;689078;28;1833;-70
2023/12/10 00:22:12;;;;;;;18.70;4.40;;;;;;;;;;687486;28;4239;-71
2023/12/10 00:22:33;;;;;;;16.58;4.03;;;;;;;;;;688615;28;1280;-73
2023/12/10 00:22:53;;;;;;;13.83;3.13;;;;;;;;;;688869;28;1735;-75
2023/12/10 00:23:13;;;;;;;17.07;3.40;;;;;;;;;;690321;28;1481;-72
2023/12/10 00:23:33;;;;;;;18.38;4.00;;;;;;;;;;686618;28;3337;-74
2023/12/10 00:23:54;;;;;;;18.40;4.40;;;;;;;;;;685627;28;1503;-73
2023/12/10 00:24:14;;;;;;;21.30;4.53;;;;;;;;;;685155;28;952;-72
2023/12/10 00:24:34;;;;;;;22.20;4.10;;;;;;;;;;687325;28;876;-73
2023/12/10 00:24:54;;;;;;;22.83;4.10;;;;;;;;;;685949;28;1430;-74
2023/12/10 00:25:15;;;;;;;21.63;4.43;;;;;;;;;;684313;28;4385;-72
2023/12/10 00:25:35;;;;;;;19.97;4.23;;;;;;;;;;687315;28;913;-73
2023/12/10 00:25:55;;;;;;;19.75;4.07;;;;;;;;;;685400;28;1744;-74
2023/12/10 00:26:15;;;;;;;18.53;3.90;;;;;;;;;;683900;28;1065;-71
2023/12/10 00:26:36;;;;;;;17.07;3.60;;;;;;;;;;684004;28;881;-73
2023/12/10 00:26:56;;;;;;;19.20;3.93;;;;;;;;;;683118;28;2156;-75
2023/12/10 00:27:16;;;;;;;17.33;3.60;;;;;;;;;;687182;28;964;-76
2023/12/10 00:27:36;;;;;;;20.13;4.00;;;;;;;;;;687360;28;794;-76
2023/12/10 00:27:58;;;;;;;21.20;4.38;;;;;;;;;;683802;28;2509;-76
2023/12/10 00:28:18;;;;;;;22.13;4.47;;;;;;;;;;690163;28;5135;-77
2023/12/10 00:28:38;;;;;;;18.83;3.83;;;;;;;;;;689085;28;2368;-75
2023/12/10 00:28:58;;;;;;;21.52;3.90;;;;;;;;;;690669;28;880;-77
2023/12/10 00:29:19;;;;;;;22.67;4.40;;;;;;;;;;690309;28;835;-76
2023/12/10 00:29:39;;;;;;;20.13;3.80;;;;;;;;;;688803;28;1881;-76
2023/12/10 00:29:59;;;;;;;15.90;3.93;;;;;;;;;;687929;28;1208;-75
2023/12/10 00:30:20;;;;;;;18.83;3.73;;;;;;;;;;684646;28;920;-76
2023/12/10 00:30:42;;;;;;;16.03;3.40;;;;;;;;;;683035;28;2288;-78
2023/12/10 00:31:05;;;;;;;13.55;3.30;;;;;;;;;;684588;28;4428;-76
2023/12/10 00:31:25;;;;;;;21.13;3.70;;;;;;;;;;685092;28;881;-76
2023/12/10 00:31:45;;;;;;;19.57;3.30;;;;;;;;;;687002;28;1903;-76
2023/12/10 00:32:06;;;;;;;19.20;3.50;;;;;;;;;;690131;28;881;-76
2023/12/10 00:32:26;;;;;;;21.73;4.28;;;;;;;;;;690651;28;833;-75
2023/12/10 00:32:47;;;;;;;18.97;4.27;;;;;;;;;;689066;28;1768;-77
2023/12/10 00:33:08;;;;;;;20.30;4.00;;;;;;;;;;690494;28;959;-75
2023/12/10 00:33:28;;;;;;;23.25;4.57;;;;;;;;;;690334;28;793;-77
2023/12/10 00:33:48;;;;;;;20.30;4.67;;;;;;;;;;689061;28;1736;-75
2023/12/10 00:34:09;;;;;;;20.92;5.10;;;;;;;;;;690006;28;4383;-75
2023/12/10 00:34:29;;;;;;;20.40;4.00;;;;;;;;;;687549;28;1354;-76
2023/12/10 00:34:49;;;;;;;22.60;4.20;;;;;;;;;;684919;28;1874;-76
2023/12/10 00:35:10;;;;;;;20.95;4.43;;;;;;;;;;685014;28;1155;-75
2023/12/10 00:35:30;;;;;;;19.07;4.43;;;;;;;;;;685185;28;845;-74
2023/12/10 00:35:50;;;;;;;16.37;3.70;;;;;;;;;;683953;28;1463;-77
2023/12/10 00:36:11;;;;;;;16.58;3.42;;;;;;;;;;682131;29;965;-75
2023/12/10 00:36:31;;;;;;;18.40;4.20;;;;;;;;;;682587;28;862;-74
2023/12/10 00:36:52;;;;;;;20.67;4.13;;;;;;;;;;680621;28;2470;-74
2023/12/10 00:37:12;;;;;;;21.40;4.00;;;;;;;;;;684428;28;4278;-73
2023/12/10 00:37:32;;;;;;;20.33;3.72;;;;;;;;;;684659;28;853;-75
2023/12/10 00:37:52;;;;;;;18.80;4.10;;;;;;;;;;683632;28;1705;-75
2023/12/10 00:38:13;;;;;;;18.83;3.83;;;;;;;;;;687594;28;908;-75
2023/12/10 00:38:33;;;;;;;20.65;3.72;;;;;;;;;;685252;28;1324;-75
2023/12/10 00:38:55;;;;;;;18.27;3.60;;;;;;;;;;689751;28;1809;-73
2023/12/10 00:39:16;;;;;;;16.55;3.80;;;;;;;;;;690495;28;1333;-76
2023/12/10 00:39:37;;;;;;;20.15;4.20;;;;;;;;;;689469;28;862;-76
2023/12/10 00:39:59;;;;;;;23.88;4.25;;;;;;;;;;687791;28;1954;-72
2023/12/10 00:40:21;;;;;;;21.13;4.00;;;;;;;;;;686217;28;6299;-75
2023/12/10 00:40:41;;;;;;;21.10;4.00;;;;;;;;;;686624;28;1068;-75
2023/12/10 00:41:02;;;;;;;21.17;4.47;;;;;;;;;;687108;28;976;-74
2023/12/10 00:41:22;;;;;;;22.88;4.40;;;;;;;;;;682386;29;1169;-77
2023/12/10 00:41:42;;;;;;;24.13;4.07;;;;;;;;;;680996;28;1577;-76
2023/12/10 00:42:03;;;;;;;24.45;4.00;;;;;;;;;;684088;28;869;-75
2023/12/10 00:42:23;;;;;;;21.13;4.07;;;;;;;;;;683620;28;2888;-77
2023/12/10 00:42:44;;;;;;;21.20;3.63;;;;;;;;;;683826;28;2369;-75
2023/12/10 00:43:05;;;;;;;18.83;4.15;;;;;;;;;;683059;28;4259;-74
2023/12/10 00:43:25;;;;;;;17.40;3.53;;;;;;;;;;689718;28;817;-76
2023/12/10 00:43:45;;;;;;;20.80;3.90;;;;;;;;;;689581;28;1899;-76
2023/12/10 00:44:05;;;;;;;20.90;5.20;;;;;;;;;;690180;28;1322;-74
2023/12/10 00:44:26;;;;;;;21.80;4.80;;;;;;;;;;690514;28;896;-73
2023/12/10 00:44:46;;;;;;;21.47;4.20;;;;;;;;;;689127;28;1827;-73
2023/12/10 00:45:06;;;;;;;16.75;3.38;;;;;;;;;;690232;28;805;-76
2023/12/10 00:45:27;;;;;;;22.17;3.97;;;;;;;;;;689846;28;1243;-75
2023/12/10 00:45:47;;;;;;;22.97;4.07;;;;;;;;;;689107;28;1803;-75
2023/12/10 00:46:07;;;;;;;18.43;3.77;;;;;;;;;;689686;28;4334;-72
2023/12/10 00:46:28;;;;;;;15.63;3.60;;;;;;;;;;687260;28;1166;-76
2023/12/10 00:46:48;;;;;;;17.20;3.88;;;;;;;;;;686463;28;1077;-74
2023/12/10 00:47:08;;;;;;;17.53;3.93;;;;;;;;;;688273;28;849;-77
2023/12/10 00:47:29;;;;;;;15.53;3.70;;;;;;;;;;689467;28;1683;-74
2023/12/10 00:47:49;;;;;;;14.73;3.50;;;;;;;;;;689344;28;903;-75
2023/12/10 00:48:10;;;;;;;20.83;3.80;;;;;;;;;;690325;28;944;-73
2023/12/10 00:48:30;;;;;;;19.75;4.10;;;;;;;;;;690090;28;830;-76
2023/12/10 00:48:50;;;;;;;20.10;4.47;;;;;;;;;;688979;28;2456;-77
2023/12/10 00:49:10;;;;;;;20.30;4.25;;;;;;;;;;689898;28;4364;-76
2023/12/10 00:49:31;;;;;;;17.77;4.00;;;;;;;;;;689934;28;853;-78
2023/12/10 00:49:51;;;;;;;20.97;4.43;;;;;;;;;;689081;28;1758;-75
2023/12/10 00:50:11;;;;;;;20.07;4.03;;;;;;;;;;687971;28;1158;-76
2023/12/10 00:50:31;;;;;;;18.63;3.87;;;;;;;;;;684440;28;945;-74
2023/12/10 00:50:52;;;;;;;20.43;3.87;;;;;;;;;;685982;28;1721;-77
2023/12/10 00:51:17;;;;;;;19.17;3.40;;;;;;;;;;686112;28;878;-77
2023/12/10 00:51:37;;;;;;;18.83;3.85;;;;;;;;;;686316;28;858;-76
2023/12/10 00:51:58;;;;;;;17.90;3.67;;;;;;;;;;686870;28;4393;-73
2023/12/10 00:52:18;;;;;;;19.02;3.80;;;;;;;;;;686503;28;1031;-75
2023/12/10 00:52:38;;;;;;;17.27;3.63;;;;;;;;;;686742;28;941;-75
2023/12/10 00:53:01;;;;;;;20.20;4.03;;;;;;;;;;684542;28;1214;-71
2023/12/10 00:53:21;;;;;;;21.20;4.10;;;;;;;;;;687639;28;829;-75
2023/12/10 00:53:41;;;;;;;20.17;3.83;;;;;;;;;;685947;28;2574;-76
2023/12/10 00:54:03;;;;;;;20.13;3.90;;;;;;;;;;685008;28;1487;-75
2023/12/10 00:54:24;;;;;;;18.05;3.70;;;;;;;;;;681229;29;2149;-78
2023/12/10 00:54:45;;;;;;;19.60;4.20;;;;;;;;;;679732;28;1824;-74
2023/12/10 00:55:05;;;;;;;20.07;4.33;;;;;;;;;;684565;28;4444;-76
2023/12/10 00:55:25;;;;;;;19.50;4.20;;;;;;;;;;685392;28;821;-75
2023/12/10 00:55:46;;;;;;;20.97;5.07;;;;;;;;;;685833;28;1737;-74
2023/12/10 00:56:07;;;;;;;20.00;5.00;;;;;;;;;;688449;28;999;-75
2023/12/10 00:56:27;;;;;;;18.07;3.97;;;;;;;;;;690715;28;805;-75
2023/12/10 00:56:47;;;;;;;21.60;3.67;;;;;;;;;;686170;28;1924;-73
2023/12/10 00:57:08;;;;;;;19.83;3.73;;;;;;;;;;684460;28;1272;-74
2023/12/10 00:57:28;;;;;;;20.57;4.10;;;;;;;;;;684961;28;924;-75
2023/12/10 00:57:48;;;;;;;22.58;4.15;;;;;;;;;;683412;28;2394;-75
2023/12/10 00:58:09;;;;;;;20.77;4.20;;;;;;;;;;683952;28;4509;-75
2023/12/10 00:58:29;;;;;;;20.70;4.35;;;;;;;;;;684743;28;972;-75
2023/12/10 00:58:49;;;;;;;22.27;4.83;;;;;;;;;;688873;28;2317;-74
2023/12/10 00:59:10;;;;;;;20.10;4.00;;;;;;;;;;684662;28;1389;-74
2023/12/10 00:59:30;;;;;;;21.63;4.13;;;;;;;;;;684885;28;881;-75
2023/12/10 00:59:50;;;;;;;18.53;3.70;;;;;;;;;;682039;28;1894;-74
2023/12/10 01:00:11;;;;;;;19.03;3.87;;;;;;;;;;686955;28;980;-74
2023/12/10 01:00:31;;;;;;;18.58;4.13;;;;;;;;;;687677;28;822;-75
2023/12/10 01:00:51;;;;;;;17.40;3.63;;;;;;;;;;686806;28;1031;-74
2023/12/10 01:01:11;;;;;;;19.47;4.30;;;;;;;;;;687825;28;4229;-76
2023/12/10 01:01:32;;;;;;;20.88;4.55;;;;;;;;;;690674;28;801;-76
2023/12/10 01:01:55;;;;;;;17.03;3.90;;;;;;;;;;689007;28;1889;-79
2023/12/10 01:02:15;;;;;;;22.00;4.40;;;;;;;;;;690054;28;892;-75
2023/12/10 01:02:35;;;;;;;20.67;3.80;;;;;;;;;;690218;28;833;-76
2023/12/10 01:02:56;;;;;;;18.40;3.33;;;;;;;;;;689650;28;1803;-76
2023/12/10 01:03:16;;;;;;;15.93;3.57;;;;;;;;;;690199;28;971;-76
2023/12/10 01:03:37;;;;;;;15.90;3.28;;;;;;;;;;690699;28;793;-75
2023/12/10 01:03:57;;;;;;;17.57;3.50;;;;;;;;;;688695;28;2026;-75
2023/12/10 01:04:17;;;;;;;18.67;3.40;;;;;;;;;;690044;28;4201;-75
2023/12/10 01:04:38;;;;;;;18.67;3.60;;;;;;;;;;690438;28;888;-74
2023/12/10 01:04:58;;;;;;;18.92;3.35;;;;;;;;;;689401;28;1797;-75
2023/12/10 01:05:19;;;;;;;20.17;3.87;;;;;;;;;;689934;28;881;-74
2023/12/10 01:05:39;;;;;;;18.42;3.53;;;;;;;;;;690125;28;964;-77
2023/12/10 01:06:01;;;;;;;15.93;3.70;;;;;;;;;;689044;28;1853;-75
2023/12/10 01:06:21;;;;;;;16.42;3.60;;;;;;;;;;690240;28;1506;-75
2023/12/10 01:06:41;;;;;;;18.03;3.47;;;;;;;;;;688664;28;1783;-73
2023/12/10 01:07:02;;;;;;;21.63;4.00;;;;;;;;;;686867;28;4261;-77
2023/12/10 01:07:22;;;;;;;19.58;3.70;;;;;;;;;;687410;28;1044;-76
2023/12/10 01:07:42;;;;;;;21.40;4.00;;;;;;;;;;686563;28;2005;-76
2023/12/10 01:08:03;;;;;;;18.47;3.87;;;;;;;;;;684275;28;1359;-76
2023/12/10 01:08:23;;;;;;;20.30;3.97;;;;;;;;;;684214;28;925;-77
2023/12/10 01:08:43;;;;;;;19.52;3.88;;;;;;;;;;683821;28;1810;-77
2023/12/10 01:09:04;;;;;;;18.90;4.30;;;;;;;;;;684956;28;952;-76
2023/12/10 01:09:24;;;;;;;18.98;3.85;;;;;;;;;;684658;28;940;-77
2023/12/10 01:09:45;;;;;;;18.17;3.73;;;;;;;;;;683858;28;2205;-75
2023/12/10 01:10:05;;;;;;;18.87;3.63;;;;;;;;;;686889;28;4269;-77
2023/12/10 01:10:25;;;;;;;22.27;3.77;;;;;;;;;;686927;28;1407;-75
2023/12/10 01:10:45;;;;;;;17.03;3.20;;;;;;;;;;686405;28;1580;-75
2023/12/10 01:11:06;;;;;;;19.97;3.63;;;;;;;;;;684734;28;834;-77
2023/12/10 01:11:26;;;;;;;18.87;4.17;;;;;;;;;;684959;28;806;-75
2023/12/10 01:11:46;;;;;;;17.30;4.13;;;;;;;;;;683674;28;1926;-75
2023/12/10 01:12:07;;;;;;;18.23;4.20;;;;;;;;;;686038;28;990;-76
2023/12/10 01:12:27;;;;;;;16.50;4.03;;;;;;;;;;688975;28;916;-77
2023/12/10 01:12:47;;;;;;;20.65;4.25;;;;;;;;;;688757;28;1808;-76
2023/12/10 01:13:08;;;;;;;17.50;3.40;;;;;;;;;;690134;28;4398;-75
2023/12/10 01:13:28;;;;;;;22.10;3.83;;;;;;;;;;690578;28;963;-76
2023/12/10 01:13:48;;;;;;;19.93;3.57;;;;;;;;;;688428;28;2202;-76
2023/12/10 01:14:08;;;;;;;21.23;3.67;;;;;;;;;;690498;28;864;-73
2023/12/10 01:14:29;;;;;;;19.60;3.47;;;;;;;;;;690239;28;821;-74
2023/12/10 01:14:49;;;;;;;19.13;3.70;;;;;;;;;;688950;28;2366;-74
2023/12/10 01:15:10;;;;;;;14.32;3.05;;;;;;;;;;689918;28;1269;-72
2023/12/10 01:15:31;;;;;;;17.37;3.47;;;;;;;;;;690425;28;881;-69
2023/12/10 01:15:51;;;;;;;19.10;3.90;;;;;;;;;;686132;28;1836;-75
2023/12/10 01:16:16;;;;;;;19.92;3.33;;;;;;;;;;686944;28;4250;-72
2023/12/10 01:16:36;;;;;;;18.30;3.25;;;;;;;;;;684354;28;1056;-73
2023/12/10 01:16:57;;;;;;;17.77;3.33;;;;;;;;;;682591;28;1640;-73
2023/12/10 01:17:17;;;;;;;20.40;3.53;;;;;;;;;;683280;28;786;-72
2023/12/10 01:17:38;;;;;;;20.95;3.67;;;;;;;;;;685157;28;941;-76
2023/12/10 01:18:01;;;;;;;20.37;4.03;;;;;;;;;;684154;28;1720;-70
2023/12/10 01:18:21;;;;;;;21.33;4.32;;;;;;;;;;685943;28;1340;-73
2023/12/10 01:18:44;;;;;;;19.63;4.73;;;;;;;;;;687626;28;964;-75
2023/12/10 01:19:05;;;;;;;19.38;3.88;;;;;;;;;;689220;28;4264;-74
2023/12/10 01:19:26;;;;;;;20.27;3.80;;;;;;;;;;690071;28;824;-73
2023/12/10 01:19:47;;;;;;;20.08;4.13;;;;;;;;;;688418;28;3479;-73
2023/12/10 01:20:08;;;;;;;14.75;3.05;;;;;;;;;;689696;28;971;-75
2023/12/10 01:20:29;;;;;;;18.10;3.63;;;;;;;;;;690345;28;773;-74
2023/12/10 01:20:49;;;;;;;20.15;4.13;;;;;;;;;;688760;28;2437;-74
2023/12/10 01:21:09;;;;;;;21.30;4.13;;;;;;;;;;687173;28;1166;-73
2023/12/10 01:21:30;;;;;;;14.40;3.65;;;;;;;;;;687675;28;900;-73
2023/12/10 01:21:50;;;;;;;15.23;3.87;;;;;;;;;;686365;28;2418;-72
2023/12/10 01:22:10;;;;;;;16.42;3.70;;;;;;;;;;686358;28;4260;-74
2023/12/10 01:22:31;;;;;;;19.07;3.60;;;;;;;;;;687585;28;972;-75
2023/12/10 01:22:51;;;;;;;18.70;3.70;;;;;;;;;;686092;28;2236;-73
2023/12/10 01:23:11;;;;;;;18.63;3.93;;;;;;;;;;687342;28;826;-74
2023/12/10 01:23:32;;;;;;;19.48;4.30;;;;;;;;;;689087;28;1198;-73
2023/12/10 01:23:56;;;;;;;16.75;3.92;;;;;;;;;;689292;28;2286;-75
2023/12/10 01:24:19;;;;;;;17.50;3.55;;;;;;;;;;690049;28;853;-73
2023/12/10 01:24:39;;;;;;;17.50;3.30;;;;;;;;;;690087;28;960;-73
2023/12/10 01:25:00;;;;;;;22.35;3.47;;;;;;;;;;685929;28;4306;-71
2023/12/10 01:25:20;;;;;;;18.92;3.58;;;;;;;;;;686883;28;932;-74
2023/12/10 01:25:41;;;;;;;17.77;3.50;;;;;;;;;;687703;28;905;-74
2023/12/10 01:26:01;;;;;;;20.67;3.88;;;;;;;;;;687034;28;2252;-73
2023/12/10 01:26:22;;;;;;;19.80;3.90;;;;;;;;;;689634;28;1237;-73
2023/12/10 01:26:42;;;;;;;19.45;4.10;;;;;;;;;;690871;28;932;-71
2023/12/10 01:27:02;;;;;;;15.80;3.63;;;;;;;;;;689407;28;1753;-74
2023/12/10 01:27:22;;;;;;;19.60;3.67;;;;;;;;;;690338;28;770;-73
2023/12/10 01:27:43;;;;;;;22.90;3.80;;;;;;;;;;689411;28;1875;-72
2023/12/10 01:28:03;;;;;;;19.90;3.93;;;;;;;;;;691327;28;4228;-73
2023/12/10 01:28:23;;;;;;;18.60;3.60;;;;;;;;;;690447;28;921;-73
2023/12/10 01:28:43;;;;;;;19.45;3.25;;;;;;;;;;689533;28;1606;-73
2023/12/10 01:29:04;;;;;;;23.17;4.23;;;;;;;;;;690252;28;853;-73
2023/12/10 01:29:25;;;;;;;21.95;4.20;;;;;;;;;;690583;28;790;-73
2023/12/10 01:29:46;;;;;;;19.33;3.88;;;;;;;;;;689544;28;1783;-73
2023/12/10 01:30:07;;;;;;;21.40;4.73;;;;;;;;;;690337;28;992;-72
2023/12/10 01:30:27;;;;;;;17.77;4.43;;;;;;;;;;689990;28;1209;-73
2023/12/10 01:30:47;;;;;;;18.40;3.42;;;;;;;;;;689810;28;2418;-76
2023/12/10 01:31:08;;;;;;;15.80;3.13;;;;;;;;;;689936;28;4510;-73
2023/12/10 01:31:33;;;;;;;16.10;3.07;;;;;;;;;;690663;28;893;-73
2023/12/10 01:31:53;;;;;;;18.55;3.63;;;;;;;;;;688882;28;1965;-73
2023/12/10 01:32:14;;;;;;;16.90;3.40;;;;;;;;;;690876;28;782;-73
2023/12/10 01:32:34;;;;;;;18.27;3.63;;;;;;;;;;688189;28;925;-72
2023/12/10 01:32:57;;;;;;;20.50;4.00;;;;;;;;;;689652;28;2022;-73
2023/12/10 01:33:17;;;;;;;13.77;3.20;;;;;;;;;;687181;28;802;-73
2023/12/10 01:33:38;;;;;;;17.53;3.73;;;;;;;;;;687758;28;790;-75
2023/12/10 01:33:58;;;;;;;21.00;3.63;;;;;;;;;;686406;28;4883;-73
2023/12/10 01:34:18;;;;;;;19.20;3.37;;;;;;;;;;688434;28;862;-73
2023/12/10 01:34:40;;;;;;;21.40;3.83;;;;;;;;;;686522;28;925;-72
2023/12/10 01:35:01;;;;;;;16.15;3.72;;;;;;;;;;686711;28;1488;-72
2023/12/10 01:35:21;;;;;;;15.37;3.50;;;;;;;;;;687715;28;793;-71
2023/12/10 01:35:42;;;;;;;16.80;4.03;;;;;;;;;;688209;28;901;-73
2023/12/10 01:36:02;;;;;;;14.90;3.77;;;;;;;;;;687077;28;2380;-73
2023/12/10 01:36:23;;;;;;;19.43;4.33;;;;;;;;;;688779;28;810;-73
2023/12/10 01:36:43;;;;;;;19.55;4.45;;;;;;;;;;691231;28;1007;-72
2023/12/10 01:37:03;;;;;;;18.63;4.27;;;;;;;;;;690832;28;4374;-73
2023/12/10 01:37:23;;;;;;;16.83;3.70;;;;;;;;;;688869;28;1136;-74
2023/12/10 01:37:44;;;;;;;20.33;4.37;;;;;;;;;;689149;28;837;-74
2023/12/10 01:38:04;;;;;;;19.57;3.67;;;;;;;;;;689272;28;1715;-73
2023/12/10 01:38:24;;;;;;;18.85;3.80;;;;;;;;;;690102;28;3005;-72
2023/12/10 01:38:44;;;;;;;16.67;3.90;;;;;;;;;;688791;28;2331;-73
2023/12/10 01:39:05;;;;;;;18.60;3.67;;;;;;;;;;690572;28;1285;-72
2023/12/10 01:39:25;;;;;;;19.23;4.10;;;;;;;;;;689237;28;964;-74
2023/12/10 01:39:45;;;;;;;21.27;4.07;;;;;;;;;;687112;28;1008;-73
2023/12/10 01:40:08;;;;;;;21.77;3.80;;;;;;;;;;687336;28;4526;-72
2023/12/10 01:40:29;;;;;;;16.55;3.00;;;;;;;;;;686943;28;1267;-74
2023/12/10 01:40:49;;;;;;;16.65;3.40;;;;;;;;;;685096;28;1837;-74
2023/12/10 01:41:09;;;;;;;20.43;3.40;;;;;;;;;;686795;28;1556;-73
2023/12/10 01:41:29;;;;;;;16.90;3.27;;;;;;;;;;686815;28;869;-72
2023/12/10 01:41:49;;;;;;;17.85;3.55;;;;;;;;;;688224;28;1731;-74
2023/12/10 01:42:10;;;;;;;19.43;3.37;;;;;;;;;;688942;28;5230;-73
2023/12/10 01:42:30;;;;;;;22.60;3.77;;;;;;;;;;690737;28;1194;-72
2023/12/10 01:42:50;;;;;;;18.47;4.07;;;;;;;;;;689241;28;920;-74
2023/12/10 01:43:11;;;;;;;18.70;3.60;;;;;;;;;;690171;28;4208;-73
2023/12/10 01:43:32;;;;;;;18.20;3.17;;;;;;;;;;690715;28;1039;-72
2023/12/10 01:43:53;;;;;;;18.27;3.10;;;;;;;;;;689990;28;1055;-73
2023/12/10 01:44:14;;;;;;;23.52;3.85;;;;;;;;;;689196;28;1358;-73
2023/12/10 01:44:34;;;;;;;23.30;3.80;;;;;;;;;;690681;28;967;-74
2023/12/10 01:44:54;;;;;;;19.05;3.97;;;;;;;;;;689646;28;2422;-71
2023/12/10 01:45:14;;;;;;;17.40;3.90;;;;;;;;;;687762;28;864;-70
2023/12/10 01:45:35;;;;;;;16.13;3.70;;;;;;;;;;687577;28;810;-70
2023/12/10 01:45:55;;;;;;;17.63;3.60;;;;;;;;;;685874;28;1966;-74
2023/12/10 01:46:16;;;;;;;19.13;3.50;;;;;;;;;;686519;28;4429;-73
2023/12/10 01:46:36;;;;;;;16.92;3.47;;;;;;;;;;690073;28;1155;-76
2023/12/10 01:46:56;;;;;;;17.93;4.07;;;;;;;;;;688353;28;2122;-74
2023/12/10 01:47:18;;;;;;;20.88;4.30;;;;;;;;;;691655;28;818;-74
2023/12/10 01:47:39;;;;;;;19.02;3.78;;;;;;;;;;686474;28;1675;-74
2023/12/10 01:48:01;;;;;;;22.73;4.40;;;;;;;;;;688697;28;1595;-74
2023/12/10 01:48:23;;;;;;;19.00;3.42;;;;;;;;;;689055;28;908;-74
2023/12/10 01:48:44;;;;;;;19.58;3.63;;;;;;;;;;688744;28;1046;-74
2023/12/10 01:49:07;;;;;;;20.13;4.00;;;;;;;;;;686301;28;4275;-75
2023/12/10 01:49:28;;;;;;;19.70;4.03;;;;;;;;;;686125;28;912;-74
2023/12/10 01:49:48;;;;;;;20.67;3.90;;;;;;;;;;686077;28;1762;-73
2023/12/10 01:50:11;;;;;;;18.60;3.60;;;;;;;;;;685083;28;1573;-74
2023/12/10 01:50:33;;;;;;;16.05;3.38;;;;;;;;;;684805;28;952;-73
2023/12/10 01:50:53;;;;;;;16.83;3.50;;;;;;;;;;684067;28;2225;-72
2023/12/10 01:51:14;;;;;;;17.97;3.37;;;;;;;;;;687772;28;770;-74
2023/12/10 01:51:35;;;;;;;20.80;4.20;;;;;;;;;;687648;28;755;-73
2023/12/10 01:51:56;;;;;;;18.55;4.10;;;;;;;;;;688299;28;1906;-74
2023/12/10 01:52:16;;;;;;;18.92;3.95;;;;;;;;;;691460;28;4249;-75
2023/12/10 01:52:37;;;;;;;17.53;3.83;;;;;;;;;;688176;28;861;-72
2023/12/10 01:52:58;;;;;;;16.73;4.13;;;;;;;;;;689316;28;2372;-74
2023/12/10 01:53:18;;;;;;;16.98;3.60;;;;;;;;;;689393;28;936;-73
2023/12/10 01:53:39;;;;;;;16.03;3.43;;;;;;;;;;690036;28;777;-72
2023/12/10 01:54:00;;;;;;;17.85;3.92;;;;;;;;;;688589;28;2184;-74
2023/12/10 01:54:22;;;;;;;18.00;3.80;;;;;;;;;;690013;28;873;-73
2023/12/10 01:54:42;;;;;;;21.15;3.65;;;;;;;;;;690140;28;1294;-73
2023/12/10 01:55:03;;;;;;;19.53;3.73;;;;;;;;;;688804;28;4312;-76
2023/12/10 01:55:23;;;;;;;16.25;3.95;;;;;;;;;;690368;28;869;-72
2023/12/10 01:55:44;;;;;;;19.17;3.40;;;;;;;;;;689456;28;886;-72
2023/12/10 01:56:06;;;;;;;17.80;3.37;;;;;;;;;;689134;28;1565;-73
2023/12/10 01:56:28;;;;;;;15.82;3.47;;;;;;;;;;690920;28;1031;-71
2023/12/10 01:56:49;;;;;;;15.15;3.10;;;;;;;;;;688285;28;1491;-73
2023/12/10 01:57:11;;;;;;;19.15;3.33;;;;;;;;;;690142;28;857;-71
2023/12/10 01:57:33;;;;;;;20.17;3.67;;;;;;;;;;686037;28;1378;-74
2023/12/10 01:57:53;;;;;;;17.52;4.38;;;;;;;;;;684737;28;2361;-73
2023/12/10 01:58:13;;;;;;;18.52;4.00;;;;;;;;;;685997;28;4260;-76
2023/12/10 01:58:34;;;;;;;17.70;3.40;;;;;;;;;;690169;28;995;-73
2023/12/10 01:58:55;;;;;;;20.23;3.92;;;;;;;;;;687416;28;1706;-73
2023/12/10 01:59:17;;;;;;;22.83;3.87;;;;;;;;;;689936;28;775;-73
2023/12/10 01:59:37;;;;;;;17.20;3.90;;;;;;;;;;690350;28;1211;-73
2023/12/10 01:59:58;;;;;;;18.30;3.70;;;;;;;;;;689164;28;2326;-73
2023/12/10 02:00:18;;;;;;;17.50;3.05;;;;;;;;;;688801;28;862;-75
2023/12/10 02:00:39;;;;;;;18.43;3.20;;;;;;;;;;690804;28;876;-74
2023/12/10 02:01:00;;;;;;;17.97;3.53;;;;;;;;;;688229;28;4638;-73
2023/12/10 02:01:21;;;;;;;15.32;3.00;;;;;;;;;;690679;28;912;-77
2023/12/10 02:01:41;;;;;;;15.27;3.03;;;;;;;;;;689691;28;900;-74
2023/12/10 02:02:02;;;;;;;17.83;3.30;;;;;;;;;;689561;28;1515;-75
2023/12/10 02:02:22;;;;;;;16.50;3.50;;;;;;;;;;688525;28;863;-70
2023/12/10 02:02:44;;;;;;;17.88;3.30;;;;;;;;;;691020;28;963;-74
2023/12/10 02:03:04;;;;;;;16.75;4.05;;;;;;;;;;689255;28;1830;-75
2023/12/10 02:03:24;;;;;;;19.48;4.15;;;;;;;;;;691041;28;947;-73
2023/12/10 02:03:45;;;;;;;17.47;3.60;;;;;;;;;;690611;28;781;-73
2023/12/10 02:04:05;;;;;;;18.17;3.40;;;;;;;;;;688958;28;4441;-74
2023/12/10 02:04:26;;;;;;;19.13;3.33;;;;;;;;;;690419;28;860;-73
2023/12/10 02:04:47;;;;;;;19.55;4.35;;;;;;;;;;690641;28;797;-73
2023/12/10 02:05:08;;;;;;;19.83;3.73;;;;;;;;;;687535;28;800;-73
2023/12/10 02:05:28;;;;;;;16.33;3.10;;;;;;;;;;688694;28;963;-72
2023/12/10 02:05:48;;;;;;;17.88;3.22;;;;;;;;;;686935;28;1704;-73
2023/12/10 02:06:09;;;;;;;20.27;3.50;;;;;;;;;;685508;28;864;-73
2023/12/10 02:06:29;;;;;;;21.30;3.78;;;;;;;;;;686957;28;916;-73